sensor_id;sensor_type;location;lat;lon;timestamp;pressure;altitude;pressure_sealevel;temperature;humidity
69848;BME280;57143;55.940;37.496;2023-04-05T00:02:21;95684.72;;;5.40;100.00
69848;BME280;57143;55.940;37.496;2023-04-05T00:04:51;95682.03;;;5.40;100.00
69848;BME280;57143;55.940;37.496;2023-04-05T00:07:22;95663.81;;;5.37;100.00
69848;BME280;57143;55.940;37.496;2023-04-05T00:09:51;95659.53;;;5.36;100.00
69848;BME280;57143;55.940;37.496;2023-04-05T00:12:19;95642.00;;;5.15;100.00
69848;BME280;57143;55.940;37.496;2023-04-05T00:14:46;95669.47;;;5.36;100.00
69848;BME280;57143;55.940;37.496;2023-04-05T00:17:13;95678.63;;;5.35;100.00
69848;BME280;57143;55.940;37.496;2023-04-05T00:19:40;95677.81;;;5.34;100.00
69848;BME280;57143;55.940;37.496;2023-04-05T00:22:09;95687.63;;;5.15;100.00
69848;BME280;57143;55.940;37.496;2023-04-05T00:24:37;95695.34;;;5.22;100.00
69848;BME280;57143;55.940;37.496;2023-04-05T00:27:06;95681.75;;;5.13;100.00
69848;BME280;57143;55.940;37.496;2023-04-05T00:29:34;95666.16;;;5.15;100.00
69848;BME280;57143;55.940;37.496;2023-04-05T00:32:01;95655.50;;;5.05;100.00
69848;BME280;57143;55.940;37.496;2023-04-05T00:34:29;95641.47;;;4.85;100.00
69848;BME280;57143;55.940;37.496;2023-04-05T00:36:57;95620.44;;;4.97;100.00
69848;BME280;57143;55.940;37.496;2023-04-05T00:39:26;95599.56;;;4.89;100.00
69848;BME280;57143;55.940;37.496;2023-04-05T00:41:53;95581.59;;;4.89;100.00
69848;BME280;57143;55.940;37.496;2023-04-05T00:44:20;95581.97;;;4.78;100.00
69848;BME280;57143;55.940;37.496;2023-04-05T00:46:47;95537.22;;;4.73;100.00
69848;BME280;57143;55.940;37.496;2023-04-05T00:49:15;95520.53;;;4.81;100.00
69848;BME280;57143;55.940;37.496;2023-04-05T00:51:43;95511.91;;;4.84;100.00
69848;BME280;57143;55.940;37.496;2023-04-05T00:54:12;95511.63;;;4.86;100.00
69848;BME280;57143;55.940;37.496;2023-04-05T00:56:41;95528.72;;;4.61;100.00
69848;BME280;57143;55.940;37.496;2023-04-05T00:59:10;95503.22;;;4.35;100.00
69848;BME280;57143;55.940;37.496;2023-04-05T01:01:38;95523.09;;;4.62;100.00
69848;BME280;57143;55.940;37.496;2023-04-05T01:04:08;95522.59;;;4.60;100.00
69848;BME280;57143;55.940;37.496;2023-04-05T01:06:51;95519.56;;;4.67;100.00
69848;BME280;57143;55.940;37.496;2023-04-05T01:09:32;95528.97;;;4.64;100.00
69848;BME280;57143;55.940;37.496;2023-04-05T01:12:07;95548.13;;;4.53;100.00
69848;BME280;57143;55.940;37.496;2023-04-05T01:14:46;95554.25;;;4.58;100.00
69848;BME280;57143;55.940;37.496;2023-04-05T01:17:15;95536.03;;;4.55;100.00
69848;BME280;57143;55.940;37.496;2023-04-05T01:19:47;95536.16;;;4.40;100.00
69848;BME280;57143;55.940;37.496;2023-04-05T01:22:53;95552.16;;;4.50;100.00
69848;BME280;57143;55.940;37.496;2023-04-05T01:28:54;95543.53;;;4.58;100.00
69848;BME280;57143;55.940;37.496;2023-04-05T01:31:28;95539.97;;;4.34;100.00
69848;BME280;57143;55.940;37.496;2023-04-05T01:34:02;95561.00;;;4.51;100.00
69848;BME280;57143;55.940;37.496;2023-04-05T01:36:38;95557.00;;;4.48;100.00
69848;BME280;57143;55.940;37.496;2023-04-05T01:39:07;95570.91;;;4.55;100.00
69848;BME280;57143;55.940;37.496;2023-04-05T01:41:37;95593.16;;;4.51;100.00
69848;BME280;57143;55.940;37.496;2023-04-05T01:44:05;95614.38;;;4.47;100.00
69848;BME280;57143;55.940;37.496;2023-04-05T01:46:33;95607.38;;;4.51;100.00
69848;BME280;57143;55.940;37.496;2023-04-05T01:49:01;95600.72;;;4.44;100.00
69848;BME280;57143;55.940;37.496;2023-04-05T01:51:28;95627.25;;;4.45;100.00
69848;BME280;57143;55.940;37.496;2023-04-05T01:53:56;95645.53;;;4.38;100.00
69848;BME280;57143;55.940;37.496;2023-04-05T01:56:23;95665.09;;;4.39;100.00
69848;BME280;57143;55.940;37.496;2023-04-05T01:58:52;95663.00;;;4.31;100.00
69848;BME280;57143;55.940;37.496;2023-04-05T02:01:19;95677.41;;;4.45;100.00
69848;BME280;57143;55.940;37.496;2023-04-05T02:03:47;95694.56;;;4.39;100.00
69848;BME280;57143;55.940;37.496;2023-04-05T02:06:14;95714.72;;;4.36;100.00
69848;BME280;57143;55.940;37.496;2023-04-05T02:08:42;95711.97;;;4.46;100.00
69848;BME280;57143;55.940;37.496;2023-04-05T02:11:09;95686.91;;;4.22;100.00
69848;BME280;57143;55.940;37.496;2023-04-05T02:13:36;95725.69;;;4.35;100.00
69848;BME280;57143;55.940;37.496;2023-04-05T02:16:03;95744.72;;;4.33;100.00
69848;BME280;57143;55.940;37.496;2023-04-05T02:18:30;95758.94;;;4.34;100.00
69848;BME280;57143;55.940;37.496;2023-04-05T02:21:02;95765.09;;;4.34;100.00
69848;BME280;57143;55.940;37.496;2023-04-05T02:23:30;95761.06;;;4.37;100.00
69848;BME280;57143;55.940;37.496;2023-04-05T02:25:58;95758.88;;;4.44;100.00
69848;BME280;57143;55.940;37.496;2023-04-05T02:28:25;95780.88;;;4.41;100.00
69848;BME280;57143;55.940;37.496;2023-04-05T02:30:52;95800.78;;;4.20;100.00
69848;BME280;57143;55.940;37.496;2023-04-05T02:33:20;95833.53;;;4.07;100.00
69848;BME280;57143;55.940;37.496;2023-04-05T02:35:48;95840.19;;;4.14;100.00
69848;BME280;57143;55.940;37.496;2023-04-05T02:38:17;95819.00;;;4.23;100.00
69848;BME280;57143;55.940;37.496;2023-04-05T02:40:45;95871.28;;;4.10;100.00
69848;BME280;57143;55.940;37.496;2023-04-05T02:43:12;95851.97;;;4.23;100.00
69848;BME280;57143;55.940;37.496;2023-04-05T02:45:40;95876.38;;;4.07;100.00
69848;BME280;57143;55.940;37.496;2023-04-05T02:48:07;95919.78;;;3.89;100.00
69848;BME280;57143;55.940;37.496;2023-04-05T02:50:34;95927.53;;;3.75;100.00
69848;BME280;57143;55.940;37.496;2023-04-05T02:53:01;95940.91;;;3.70;100.00
69848;BME280;57143;55.940;37.496;2023-04-05T02:55:30;95910.66;;;3.65;100.00
69848;BME280;57143;55.940;37.496;2023-04-05T02:57:59;95905.84;;;3.67;100.00
69848;BME280;57143;55.940;37.496;2023-04-05T03:00:26;95891.63;;;3.66;100.00
69848;BME280;57143;55.940;37.496;2023-04-05T03:02:54;95888.41;;;3.59;100.00
69848;BME280;57143;55.940;37.496;2023-04-05T03:05:21;95859.50;;;3.66;100.00
69848;BME280;57143;55.940;37.496;2023-04-05T03:07:48;95836.75;;;3.74;100.00
69848;BME280;57143;55.940;37.496;2023-04-05T03:10:16;95855.78;;;3.67;100.00
69848;BME280;57143;55.940;37.496;2023-04-05T03:12:48;95811.84;;;3.73;100.00
69848;BME280;57143;55.940;37.496;2023-04-05T03:15:16;95824.16;;;3.89;100.00
69848;BME280;57143;55.940;37.496;2023-04-05T03:17:43;95817.72;;;3.95;100.00
69848;BME280;57143;55.940;37.496;2023-04-05T03:20:11;95821.72;;;4.03;100.00
69848;BME280;57143;55.940;37.496;2023-04-05T03:22:39;95829.22;;;4.01;100.00
69848;BME280;57143;55.940;37.496;2023-04-05T03:25:07;95823.88;;;3.96;100.00
69848;BME280;57143;55.940;37.496;2023-04-05T03:27:34;95851.19;;;4.03;100.00
69848;BME280;57143;55.940;37.496;2023-04-05T03:30:05;95862.72;;;3.98;100.00
69848;BME280;57143;55.940;37.496;2023-04-05T03:32:33;95884.69;;;3.90;100.00
69848;BME280;57143;55.940;37.496;2023-04-05T03:35:00;95903.44;;;3.80;100.00
69848;BME280;57143;55.940;37.496;2023-04-05T03:37:28;95924.59;;;3.82;100.00
69848;BME280;57143;55.940;37.496;2023-04-05T03:39:55;95927.03;;;3.88;100.00
69848;BME280;57143;55.940;37.496;2023-04-05T03:42:23;95942.28;;;3.88;100.00
69848;BME280;57143;55.940;37.496;2023-04-05T03:44:51;95935.06;;;3.88;100.00
69848;BME280;57143;55.940;37.496;2023-04-05T03:47:20;95936.66;;;3.89;100.00
69848;BME280;57143;55.940;37.496;2023-04-05T03:49:47;95952.19;;;3.87;100.00
69848;BME280;57143;55.940;37.496;2023-04-05T03:52:14;95962.13;;;3.92;100.00
69848;BME280;57143;55.940;37.496;2023-04-05T03:54:41;95965.84;;;3.96;100.00
69848;BME280;57143;55.940;37.496;2023-04-05T03:57:08;95976.03;;;3.89;100.00
69848;BME280;57143;55.940;37.496;2023-04-05T03:59:35;95980.06;;;3.96;100.00
69848;BME280;57143;55.940;37.496;2023-04-05T04:02:03;95965.28;;;3.74;100.00
69848;BME280;57143;55.940;37.496;2023-04-05T04:04:35;95991.03;;;3.85;100.00
69848;BME280;57143;55.940;37.496;2023-04-05T04:07:02;96002.81;;;3.84;100.00
69848;BME280;57143;55.940;37.496;2023-04-05T04:09:29;96014.59;;;3.88;100.00
69848;BME280;57143;55.940;37.496;2023-04-05T04:11:59;96027.16;;;3.82;100.00
69848;BME280;57143;55.940;37.496;2023-04-05T04:14:29;96039.81;;;3.92;100.00
69848;BME280;57143;55.940;37.496;2023-04-05T04:16:57;96039.47;;;3.83;100.00
69848;BME280;57143;55.940;37.496;2023-04-05T04:19:24;96055.06;;;3.91;100.00
69848;BME280;57143;55.940;37.496;2023-04-05T04:21:54;96059.88;;;3.89;100.00
69848;BME280;57143;55.940;37.496;2023-04-05T04:24:24;96059.56;;;3.81;100.00
69848;BME280;57143;55.940;37.496;2023-04-05T04:26:51;96084.50;;;3.81;100.00
69848;BME280;57143;55.940;37.496;2023-04-05T04:29:19;96075.13;;;3.89;100.00
69848;BME280;57143;55.940;37.496;2023-04-05T04:31:58;96083.16;;;3.89;100.00
69848;BME280;57143;55.940;37.496;2023-04-05T04:34:25;96093.09;;;3.88;100.00
69848;BME280;57143;55.940;37.496;2023-04-05T04:36:56;96089.91;;;4.01;100.00
69848;BME280;57143;55.940;37.496;2023-04-05T04:39:27;96103.28;;;3.96;100.00
69848;BME280;57143;55.940;37.496;2023-04-05T04:41:56;96080.00;;;4.12;100.00
69848;BME280;57143;55.940;37.496;2023-04-05T04:44:24;96081.63;;;4.13;100.00
69848;BME280;57143;55.940;37.496;2023-04-05T04:46:55;96095.56;;;4.15;100.00
69848;BME280;57143;55.940;37.496;2023-04-05T04:49:23;96107.91;;;4.16;100.00
69848;BME280;57143;55.940;37.496;2023-04-05T04:51:50;96091.56;;;4.22;100.00
69848;BME280;57143;55.940;37.496;2023-04-05T04:54:19;96095.34;;;4.31;100.00
69848;BME280;57143;55.940;37.496;2023-04-05T04:56:47;96084.63;;;4.41;100.00
69848;BME280;57143;55.940;37.496;2023-04-05T04:59:14;96070.69;;;4.49;100.00
69848;BME280;57143;55.940;37.496;2023-04-05T05:01:44;96072.31;;;4.55;100.00
69848;BME280;57143;55.940;37.496;2023-04-05T05:04:11;96088.91;;;4.57;100.00
69848;BME280;57143;55.940;37.496;2023-04-05T05:06:38;96088.91;;;4.62;100.00
69848;BME280;57143;55.940;37.496;2023-04-05T05:09:06;96079.25;;;4.71;100.00
69848;BME280;57143;55.940;37.496;2023-04-05T05:11:34;96070.41;;;4.66;100.00
69848;BME280;57143;55.940;37.496;2023-04-05T05:14:02;96113.56;;;4.64;100.00
69848;BME280;57143;55.940;37.496;2023-04-05T05:16:29;96098.03;;;4.77;100.00
69848;BME280;57143;55.940;37.496;2023-04-05T05:18:56;96103.94;;;4.84;100.00
69848;BME280;57143;55.940;37.496;2023-04-05T05:21:23;96095.63;;;4.95;100.00
69848;BME280;57143;55.940;37.496;2023-04-05T05:23:51;96113.88;;;4.88;100.00
69848;BME280;57143;55.940;37.496;2023-04-05T05:26:18;96143.34;;;4.68;100.00
69848;BME280;57143;55.940;37.496;2023-04-05T05:28:47;96176.06;;;4.50;100.00
69848;BME280;57143;55.940;37.496;2023-04-05T05:31:14;96133.97;;;4.91;100.00
69848;BME280;57143;55.940;37.496;2023-04-05T05:33:42;96135.06;;;5.05;100.00
69848;BME280;57143;55.940;37.496;2023-04-05T05:36:12;96116.50;;;5.28;100.00
69848;BME280;57143;55.940;37.496;2023-04-05T05:38:39;96119.44;;;5.32;100.00
69848;BME280;57143;55.940;37.496;2023-04-05T05:41:07;96176.09;;;4.90;100.00
69848;BME280;57143;55.940;37.496;2023-04-05T05:43:34;96212.59;;;4.76;100.00
69848;BME280;57143;55.940;37.496;2023-04-05T05:46:03;96242.03;;;4.66;100.00
69848;BME280;57143;55.940;37.496;2023-04-05T05:48:30;96268.06;;;4.60;100.00
69848;BME280;57143;55.940;37.496;2023-04-05T05:50:57;96271.31;;;4.67;100.00
69848;BME280;57143;55.940;37.496;2023-04-05T05:53:28;96255.78;;;4.85;100.00
69848;BME280;57143;55.940;37.496;2023-04-05T05:55:55;96250.16;;;4.91;100.00
69848;BME280;57143;55.940;37.496;2023-04-05T05:58:22;96265.44;;;4.91;100.00
69848;BME280;57143;55.940;37.496;2023-04-05T06:00:49;96310.47;;;4.68;100.00
69848;BME280;57143;55.940;37.496;2023-04-05T06:03:23;96311.28;;;4.74;100.00
69848;BME280;57143;55.940;37.496;2023-04-05T06:05:50;96316.41;;;4.81;100.00
69848;BME280;57143;55.940;37.496;2023-04-05T06:08:18;96337.03;;;4.75;100.00
69848;BME280;57143;55.940;37.496;2023-04-05T06:10:45;96327.72;;;4.98;100.00
69848;BME280;57143;55.940;37.496;2023-04-05T06:13:12;96323.44;;;5.02;100.00
69848;BME280;57143;55.940;37.496;2023-04-05T06:15:40;96352.97;;;5.07;100.00
69848;BME280;57143;55.940;37.496;2023-04-05T06:18:08;96334.75;;;5.19;100.00
69848;BME280;57143;55.940;37.496;2023-04-05T06:20:36;96323.75;;;5.30;100.00
69848;BME280;57143;55.940;37.496;2023-04-05T06:23:05;96324.56;;;5.31;100.00
69848;BME280;57143;55.940;37.496;2023-04-05T06:25:33;96356.81;;;5.36;100.00
69848;BME280;57143;55.940;37.496;2023-04-05T06:28:02;96386.56;;;5.19;100.00
69848;BME280;57143;55.940;37.496;2023-04-05T06:30:30;96375.88;;;5.39;100.00
69848;BME280;57143;55.940;37.496;2023-04-05T06:32:58;96404.00;;;5.22;100.00
69848;BME280;57143;55.940;37.496;2023-04-05T06:35:26;96406.44;;;5.23;100.00
69848;BME280;57143;55.940;37.496;2023-04-05T06:37:54;96460.34;;;5.07;100.00
69848;BME280;57143;55.940;37.496;2023-04-05T06:40:21;96440.06;;;5.41;100.00
69848;BME280;57143;55.940;37.496;2023-04-05T06:42:48;96402.97;;;5.28;100.00
69848;BME280;57143;55.940;37.496;2023-04-05T06:45:15;96439.81;;;5.57;100.00
69848;BME280;57143;55.940;37.496;2023-04-05T06:47:44;96425.63;;;5.77;100.00
69848;BME280;57143;55.940;37.496;2023-04-05T06:50:11;96376.47;;;6.17;100.00
69848;BME280;57143;55.940;37.496;2023-04-05T06:52:38;96366.78;;;6.31;100.00
69848;BME280;57143;55.940;37.496;2023-04-05T06:55:07;96353.03;;;6.37;100.00
69848;BME280;57143;55.940;37.496;2023-04-05T06:57:34;96370.16;;;6.71;100.00
69848;BME280;57143;55.940;37.496;2023-04-05T07:00:02;96388.72;;;6.83;100.00
69848;BME280;57143;55.940;37.496;2023-04-05T07:02:33;96382.41;;;7.13;100.00
69848;BME280;57143;55.940;37.496;2023-04-05T07:05:00;96413.66;;;7.09;100.00
69848;BME280;57143;55.940;37.496;2023-04-05T07:07:29;96485.06;;;6.91;100.00
69848;BME280;57143;55.940;37.496;2023-04-05T07:09:56;96479.63;;;7.01;100.00
69848;BME280;57143;55.940;37.496;2023-04-05T07:12:25;96507.28;;;7.32;100.00
69848;BME280;57143;55.940;37.496;2023-04-05T07:14:52;96542.06;;;7.33;100.00
69848;BME280;57143;55.940;37.496;2023-04-05T07:17:19;96566.81;;;7.35;100.00
69848;BME280;57143;55.940;37.496;2023-04-05T07:19:46;96691.78;;;6.74;100.00
69848;BME280;57143;55.940;37.496;2023-04-05T07:22:13;96731.59;;;6.67;100.00
69848;BME280;57143;55.940;37.496;2023-04-05T07:24:41;96771.13;;;6.66;100.00
69848;BME280;57143;55.940;37.496;2023-04-05T07:27:08;96800.19;;;6.64;100.00
69848;BME280;57143;55.940;37.496;2023-04-05T07:29:38;96821.22;;;6.67;100.00
69848;BME280;57143;55.940;37.496;2023-04-05T07:32:08;96883.84;;;6.58;100.00
69848;BME280;57143;55.940;37.496;2023-04-05T07:34:36;96848.81;;;7.10;100.00
69848;BME280;57143;55.940;37.496;2023-04-05T07:37:04;96844.84;;;7.37;100.00
69848;BME280;57143;55.940;37.496;2023-04-05T07:39:32;96869.66;;;7.59;100.00
69848;BME280;57143;55.940;37.496;2023-04-05T07:41:59;96939.41;;;7.36;100.00
69848;BME280;57143;55.940;37.496;2023-04-05T07:44:26;96942.22;;;7.66;100.00
69848;BME280;57143;55.940;37.496;2023-04-05T07:46:55;96988.63;;;7.88;100.00
69848;BME280;57143;55.940;37.496;2023-04-05T07:49:25;96998.66;;;8.07;100.00
69848;BME280;57143;55.940;37.496;2023-04-05T07:51:55;97049.63;;;8.09;100.00
69848;BME280;57143;55.940;37.496;2023-04-05T07:54:23;97071.84;;;8.36;100.00
69848;BME280;57143;55.940;37.496;2023-04-05T07:56:50;97138.75;;;8.34;100.00
69848;BME280;57143;55.940;37.496;2023-04-05T07:59:19;97195.03;;;8.05;100.00
69848;BME280;57143;55.940;37.496;2023-04-05T08:01:47;97299.91;;;7.65;100.00
69848;BME280;57143;55.940;37.496;2023-04-05T08:04:15;97324.22;;;8.02;100.00
69848;BME280;57143;55.940;37.496;2023-04-05T08:06:43;97344.09;;;7.96;100.00
69848;BME280;57143;55.940;37.496;2023-04-05T08:09:10;97381.78;;;8.17;100.00
69848;BME280;57143;55.940;37.496;2023-04-05T08:11:37;97393.34;;;8.45;100.00
69848;BME280;57143;55.940;37.496;2023-04-05T08:14:05;97393.56;;;8.80;100.00
69848;BME280;57143;55.940;37.496;2023-04-05T08:16:32;97418.00;;;9.10;100.00
69848;BME280;57143;55.940;37.496;2023-04-05T08:18:59;97516.50;;;8.92;100.00
69848;BME280;57143;55.940;37.496;2023-04-05T08:21:28;97589.72;;;8.33;100.00
69848;BME280;57143;55.940;37.496;2023-04-05T08:23:55;97624.53;;;8.56;100.00
69848;BME280;57143;55.940;37.496;2023-04-05T08:26:22;97635.00;;;8.79;100.00
69848;BME280;57143;55.940;37.496;2023-04-05T08:28:50;97636.84;;;9.05;100.00
69848;BME280;57143;55.940;37.496;2023-04-05T08:31:17;97663.41;;;9.50;100.00
69848;BME280;57143;55.940;37.496;2023-04-05T08:33:45;97665.56;;;9.94;100.00
69848;BME280;57143;55.940;37.496;2023-04-05T08:36:12;97717.28;;;10.03;100.00
69848;BME280;57143;55.940;37.496;2023-04-05T08:38:41;97864.31;;;8.80;100.00
69848;BME280;57143;55.940;37.496;2023-04-05T08:41:15;97844.94;;;9.31;100.00
69848;BME280;57143;55.940;37.496;2023-04-05T08:44:04;97858.31;;;9.43;100.00
69848;BME280;57143;55.940;37.496;2023-04-05T08:46:33;97896.06;;;9.11;100.00
69848;BME280;57143;55.940;37.496;2023-04-05T08:49:03;97942.34;;;8.77;100.00
69848;BME280;57143;55.940;37.496;2023-04-05T08:51:31;97951.22;;;8.94;100.00
69848;BME280;57143;55.940;37.496;2023-04-05T08:54:01;97943.06;;;8.89;100.00
69848;BME280;57143;55.940;37.496;2023-04-05T08:56:31;97933.31;;;8.88;100.00
69848;BME280;57143;55.940;37.496;2023-04-05T08:59:01;97932.63;;;9.41;100.00
69848;BME280;57143;55.940;37.496;2023-04-05T09:01:30;97938.66;;;9.48;100.00
69848;BME280;57143;55.940;37.496;2023-04-05T09:04:00;97919.28;;;9.56;100.00
69848;BME280;57143;55.940;37.496;2023-04-05T09:06:28;97968.25;;;9.81;100.00
69848;BME280;57143;55.940;37.496;2023-04-05T09:08:56;98003.44;;;9.38;100.00
69848;BME280;57143;55.940;37.496;2023-04-05T09:11:25;98016.31;;;9.74;100.00
69848;BME280;57143;55.940;37.496;2023-04-05T09:13:53;97967.16;;;9.55;100.00
69848;BME280;57143;55.940;37.496;2023-04-05T09:16:20;98078.88;;;9.77;100.00
69848;BME280;57143;55.940;37.496;2023-04-05T09:18:48;98082.03;;;9.69;100.00
69848;BME280;57143;55.940;37.496;2023-04-05T09:21:15;98051.22;;;10.18;100.00
69848;BME280;57143;55.940;37.496;2023-04-05T09:23:53;98086.38;;;10.40;100.00
69848;BME280;57143;55.940;37.496;2023-04-05T09:26:22;98141.06;;;9.94;100.00
69848;BME280;57143;55.940;37.496;2023-04-05T09:28:51;98187.88;;;9.40;100.00
69848;BME280;57143;55.940;37.496;2023-04-05T09:31:32;98206.25;;;9.21;100.00
69848;BME280;57143;55.940;37.496;2023-04-05T09:34:01;98194.44;;;9.44;100.00
69848;BME280;57143;55.940;37.496;2023-04-05T09:36:29;98186.31;;;9.10;100.00
69848;BME280;57143;55.940;37.496;2023-04-05T09:39:04;98165.16;;;9.57;100.00
69848;BME280;57143;55.940;37.496;2023-04-05T09:41:32;98211.41;;;9.06;100.00
69848;BME280;57143;55.940;37.496;2023-04-05T09:44:01;98160.34;;;9.59;100.00
69848;BME280;57143;55.940;37.496;2023-04-05T09:46:29;98138.41;;;9.99;100.00
69848;BME280;57143;55.940;37.496;2023-04-05T09:48:57;98132.63;;;9.90;100.00
69848;BME280;57143;55.940;37.496;2023-04-05T09:51:31;98187.72;;;10.01;100.00
69848;BME280;57143;55.940;37.496;2023-04-05T09:54:00;98159.56;;;10.02;100.00
69848;BME280;57143;55.940;37.496;2023-04-05T09:56:28;98200.75;;;10.25;100.00
69848;BME280;57143;55.940;37.496;2023-04-05T09:59:01;98214.88;;;10.27;100.00
69848;BME280;57143;55.940;37.496;2023-04-05T10:01:32;98236.72;;;10.04;100.00
69848;BME280;57143;55.940;37.496;2023-04-05T10:03:59;98273.91;;;9.92;100.00
69848;BME280;57143;55.940;37.496;2023-04-05T10:06:37;98265.56;;;9.94;100.00
69848;BME280;57143;55.940;37.496;2023-04-05T10:09:06;98266.78;;;9.86;100.00
69848;BME280;57143;55.940;37.496;2023-04-05T10:11:33;98290.31;;;9.69;100.00
69848;BME280;57143;55.940;37.496;2023-04-05T10:14:03;98294.84;;;9.64;100.00
69848;BME280;57143;55.940;37.496;2023-04-05T10:16:34;98293.69;;;9.76;100.00
69848;BME280;57143;55.940;37.496;2023-04-05T10:19:04;98288.09;;;9.83;100.00
69848;BME280;57143;55.940;37.496;2023-04-05T10:21:38;98295.75;;;9.69;100.00
69848;BME280;57143;55.940;37.496;2023-04-05T10:24:14;98311.59;;;9.49;100.00
69848;BME280;57143;55.940;37.496;2023-04-05T10:26:47;98307.13;;;9.71;100.00
69848;BME280;57143;55.940;37.496;2023-04-05T10:29:23;98303.19;;;9.79;100.00
69848;BME280;57143;55.940;37.496;2023-04-05T10:31:57;98311.22;;;9.74;100.00
69848;BME280;57143;55.940;37.496;2023-04-05T10:34:30;98317.22;;;9.59;100.00
69848;BME280;57143;55.940;37.496;2023-04-05T10:36:59;98335.06;;;9.77;100.00
69848;BME280;57143;55.940;37.496;2023-04-05T10:39:28;98341.06;;;9.62;100.00
69848;BME280;57143;55.940;37.496;2023-04-05T10:41:59;98339.66;;;9.60;100.00
69848;BME280;57143;55.940;37.496;2023-04-05T10:44:31;98330.25;;;9.62;100.00
69848;BME280;57143;55.940;37.496;2023-04-05T10:47:00;98362.94;;;9.04;100.00
69848;BME280;57143;55.940;37.496;2023-04-05T10:49:31;98343.53;;;9.19;100.00
69848;BME280;57143;55.940;37.496;2023-04-05T10:52:01;98366.09;;;9.13;100.00
69848;BME280;57143;55.940;37.496;2023-04-05T10:54:31;98360.31;;;9.21;100.00
69848;BME280;57143;55.940;37.496;2023-04-05T10:57:02;98357.34;;;9.06;100.00
69848;BME280;57143;55.940;37.496;2023-04-05T10:59:32;98361.63;;;9.18;100.00
69848;BME280;57143;55.940;37.496;2023-04-05T11:02:00;98331.53;;;9.15;100.00
69848;BME280;57143;55.940;37.496;2023-04-05T11:04:28;98363.00;;;8.93;100.00
69848;BME280;57143;55.940;37.496;2023-04-05T11:07:10;98348.59;;;9.15;100.00
69848;BME280;57143;55.940;37.496;2023-04-05T11:09:39;98351.13;;;9.22;100.00
69848;BME280;57143;55.940;37.496;2023-04-05T11:12:16;98366.34;;;9.11;100.00
69848;BME280;57143;55.940;37.496;2023-04-05T11:14:44;98372.91;;;9.15;100.00
69848;BME280;57143;55.940;37.496;2023-04-05T11:17:24;98364.22;;;9.13;100.00
69848;BME280;57143;55.940;37.496;2023-04-05T11:20:01;98366.16;;;9.29;100.00
69848;BME280;57143;55.940;37.496;2023-04-05T11:22:29;98368.13;;;9.34;100.00
69848;BME280;57143;55.940;37.496;2023-04-05T11:24:57;98373.16;;;9.42;100.00
69848;BME280;57143;55.940;37.496;2023-04-05T11:27:29;98379.00;;;9.51;100.00
69848;BME280;57143;55.940;37.496;2023-04-05T11:29:58;98393.19;;;9.58;100.00
69848;BME280;57143;55.940;37.496;2023-04-05T11:32:37;98390.75;;;9.73;100.00
69848;BME280;57143;55.940;37.496;2023-04-05T11:35:07;98395.22;;;9.95;100.00
69848;BME280;57143;55.940;37.496;2023-04-05T11:38:05;98409.47;;;9.91;100.00
69848;BME280;57143;55.940;37.496;2023-04-05T11:40:34;98418.16;;;9.93;100.00
69848;BME280;57143;55.940;37.496;2023-04-05T11:43:03;98432.13;;;10.01;100.00
69848;BME280;57143;55.940;37.496;2023-04-05T11:45:35;98403.72;;;9.71;100.00
69848;BME280;57143;55.940;37.496;2023-04-05T11:48:04;98445.31;;;9.98;100.00
69848;BME280;57143;55.940;37.496;2023-04-05T11:50:32;98453.44;;;9.98;100.00
69848;BME280;57143;55.940;37.496;2023-04-05T11:53:12;98471.34;;;9.71;100.00
69848;BME280;57143;55.940;37.496;2023-04-05T11:55:40;98473.13;;;9.65;100.00
69848;BME280;57143;55.940;37.496;2023-04-05T11:58:15;98469.91;;;9.80;100.00
69848;BME280;57143;55.940;37.496;2023-04-05T12:00:45;98474.00;;;9.82;100.00
69848;BME280;57143;55.940;37.496;2023-04-05T12:03:12;98486.75;;;9.70;100.00
69848;BME280;57143;55.940;37.496;2023-04-05T12:05:47;98483.13;;;9.65;100.00
69848;BME280;57143;55.940;37.496;2023-04-05T12:08:14;98479.56;;;9.76;100.00
69848;BME280;57143;55.940;37.496;2023-04-05T12:10:42;98467.88;;;9.87;100.00
69848;BME280;57143;55.940;37.496;2023-04-05T12:13:09;98468.56;;;9.82;100.00
69848;BME280;57143;55.940;37.496;2023-04-05T12:15:39;98478.03;;;9.96;100.00
69848;BME280;57143;55.940;37.496;2023-04-05T12:18:13;98478.81;;;9.80;100.00
69848;BME280;57143;55.940;37.496;2023-04-05T12:20:41;98474.72;;;10.06;100.00
69848;BME280;57143;55.940;37.496;2023-04-05T12:23:08;98470.72;;;10.08;100.00
69848;BME280;57143;55.940;37.496;2023-04-05T12:25:36;98490.25;;;10.10;100.00
69848;BME280;57143;55.940;37.496;2023-04-05T12:28:05;98501.44;;;10.02;100.00
69848;BME280;57143;55.940;37.496;2023-04-05T12:30:33;98508.66;;;10.25;100.00
69848;BME280;57143;55.940;37.496;2023-04-05T12:33:06;98516.84;;;10.02;100.00
69848;BME280;57143;55.940;37.496;2023-04-05T12:35:36;98528.53;;;10.02;100.00
69848;BME280;57143;55.940;37.496;2023-04-05T12:38:05;98543.56;;;9.70;100.00
69848;BME280;57143;55.940;37.496;2023-04-05T12:40:33;98534.06;;;9.96;100.00
69848;BME280;57143;55.940;37.496;2023-04-05T12:43:01;98549.56;;;10.12;100.00
69848;BME280;57143;55.940;37.496;2023-04-05T12:45:29;98547.94;;;9.99;100.00
69848;BME280;57143;55.940;37.496;2023-04-05T12:48:07;98554.16;;;10.11;100.00
69848;BME280;57143;55.940;37.496;2023-04-05T12:50:41;98554.56;;;9.92;100.00
69848;BME280;57143;55.940;37.496;2023-04-05T12:53:14;98548.13;;;9.81;100.00
69848;BME280;57143;55.940;37.496;2023-04-05T12:55:48;98548.06;;;9.93;100.00
69848;BME280;57143;55.940;37.496;2023-04-05T12:58:15;98560.16;;;10.13;100.00
69848;BME280;57143;55.940;37.496;2023-04-05T13:00:43;98569.88;;;10.26;100.00
69848;BME280;57143;55.940;37.496;2023-04-05T13:03:15;98618.84;;;10.24;100.00
69848;BME280;57143;55.940;37.496;2023-04-05T13:05:46;98616.16;;;10.24;100.00